createdAt,value
2017-10-30T00:01:54.307Z,69.90
2017-10-30T00:04:21.886Z,70.00
2017-10-30T00:06:49.474Z,70.40
2017-10-30T00:09:17.024Z,70.60
2017-10-30T00:11:44.569Z,70.90
2017-10-30T00:14:12.151Z,70.80
2017-10-30T00:16:39.704Z,70.80
2017-10-30T00:19:07.257Z,70.80
2017-10-30T00:21:35.643Z,70.60
2017-10-30T00:24:05.094Z,70.50
2017-10-30T00:26:32.672Z,70.40
2017-10-30T00:29:00.273Z,70.40
2017-10-30T00:31:27.835Z,70.10
2017-10-30T00:33:55.398Z,69.90
2017-10-30T00:36:22.997Z,69.30
2017-10-30T00:38:50.555Z,68.70
2017-10-30T00:41:18.105Z,68.70
2017-10-30T00:43:45.723Z,68.40
2017-10-30T00:46:13.290Z,68.30
2017-10-30T00:48:40.847Z,69.00
2017-10-30T00:51:08.425Z,68.40
2017-10-30T00:53:37.481Z,68.60
2017-10-30T00:56:05.033Z,68.60
2017-10-30T00:58:32.610Z,68.70
2017-10-30T01:01:00.178Z,68.80
2017-10-30T01:03:27.715Z,68.90
2017-10-30T01:05:55.317Z,69.10
2017-10-30T01:08:23.630Z,69.60
2017-10-30T01:10:51.163Z,69.60
2017-10-30T01:13:19.527Z,69.90
2017-10-30T01:15:47.860Z,70.10
2017-10-30T01:18:15.420Z,70.00
2017-10-30T01:20:43.008Z,70.20
2017-10-30T01:23:10.548Z,70.40
2017-10-30T01:25:38.080Z,70.40
2017-10-30T01:28:05.667Z,70.50
2017-10-30T01:30:33.217Z,70.20
2017-10-30T01:33:00.755Z,70.20
2017-10-30T01:35:28.342Z,70.30
2017-10-30T01:37:55.903Z,70.40
2017-10-30T01:40:23.474Z,70.20
2017-10-30T01:42:51.062Z,70.20
2017-10-30T01:45:19.399Z,70.40
2017-10-30T01:47:46.963Z,70.40
2017-10-30T01:50:14.535Z,70.40
2017-10-30T01:52:42.112Z,70.10
2017-10-30T01:55:09.714Z,70.30
2017-10-30T01:57:37.325Z,70.50
2017-10-30T02:00:04.905Z,70.10
2017-10-30T02:02:33.228Z,70.50
2017-10-30T02:05:00.834Z,70.50
2017-10-30T02:07:29.167Z,70.40
2017-10-30T02:09:56.741Z,70.40
2017-10-30T02:12:24.346Z,70.90
2017-10-30T02:14:52.671Z,71.00
2017-10-30T02:17:20.232Z,71.00
2017-10-30T02:19:47.846Z,70.70
2017-10-30T02:22:16.217Z,70.70
2017-10-30T02:24:44.576Z,70.90
2017-10-30T02:27:12.211Z,70.90
2017-10-30T02:29:39.774Z,71.10
2017-10-30T02:32:07.390Z,71.20
2017-10-30T02:34:35.022Z,71.00
2017-10-30T02:37:02.601Z,70.60
2017-10-30T02:39:30.945Z,71.10
2017-10-30T02:41:58.572Z,71.10
2017-10-30T02:44:26.148Z,71.20
2017-10-30T02:46:53.740Z,71.30
2017-10-30T02:49:21.356Z,71.40
2017-10-30T02:51:48.951Z,71.40
2017-10-30T02:54:16.522Z,71.50
2017-10-30T02:56:44.129Z,71.80
2017-10-30T02:59:11.711Z,72.20
2017-10-30T03:01:39.259Z,72.20
2017-10-30T03:04:06.865Z,72.30
2017-10-30T03:06:34.450Z,72.50
2017-10-30T03:09:02.048Z,72.50
2017-10-30T03:11:29.699Z,72.50
2017-10-30T03:13:57.289Z,72.40
2017-10-30T03:16:24.869Z,72.30
2017-10-30T03:18:53.235Z,72.20
2017-10-30T03:21:20.825Z,72.20
2017-10-30T03:23:49.163Z,71.80
2017-10-30T03:26:16.767Z,71.70
2017-10-30T03:28:44.345Z,71.50
2017-10-30T03:31:11.944Z,71.50
2017-10-30T03:33:39.566Z,71.60
2017-10-30T03:36:07.142Z,71.50
2017-10-30T03:38:34.726Z,71.30
2017-10-30T03:41:02.318Z,71.40
2017-10-30T03:43:30.665Z,71.40
2017-10-30T03:45:58.258Z,71.40
2017-10-30T03:48:26.616Z,71.50
2017-10-30T03:50:54.167Z,71.30
2017-10-30T03:53:21.742Z,71.40
2017-10-30T03:55:50.102Z,71.30
2017-10-30T03:58:17.658Z,71.10
2017-10-30T04:00:45.211Z,71.30
2017-10-30T04:03:12.836Z,71.40
2017-10-30T04:05:40.420Z,71.70
2017-10-30T04:08:07.975Z,72.00
2017-10-30T04:10:35.569Z,72.00
2017-10-30T04:13:03.117Z,71.90
2017-10-30T04:15:30.692Z,72.00
2017-10-30T04:17:58.259Z,72.10
2017-10-30T04:20:25.803Z,72.50
2017-10-30T04:22:53.357Z,73.00
2017-10-30T04:25:20.950Z,72.50
2017-10-30T04:27:49.278Z,72.10
2017-10-30T04:30:16.838Z,72.00
2017-10-30T04:32:44.421Z,72.00
2017-10-30T04:35:11.965Z,72.20
2017-10-30T04:37:39.520Z,72.40
2017-10-30T04:40:07.095Z,72.50
2017-10-30T04:42:34.645Z,72.20
2017-10-30T04:45:02.215Z,72.00
2017-10-30T04:47:29.808Z,71.80
2017-10-30T04:49:58.118Z,72.20
2017-10-30T04:52:25.670Z,72.10
2017-10-30T04:54:53.265Z,72.00
2017-10-30T04:57:20.815Z,72.00
2017-10-30T04:59:48.364Z,71.90
2017-10-30T05:02:15.949Z,72.00
2017-10-30T05:04:43.534Z,71.80
2017-10-30T05:07:11.848Z,71.90
2017-10-30T05:09:39.451Z,71.90
2017-10-30T05:12:07.102Z,72.20
2017-10-30T05:14:34.658Z,72.30
2017-10-30T05:17:02.250Z,72.40
2017-10-30T05:19:30.557Z,72.90
2017-10-30T05:21:58.994Z,72.90
2017-10-30T05:24:26.585Z,73.10
2017-10-30T05:26:54.900Z,73.40
2017-10-30T05:29:22.435Z,73.40
2017-10-30T05:31:50.020Z,73.40
2017-10-30T05:34:17.566Z,73.40
2017-10-30T05:36:45.128Z,73.50
2017-10-30T05:39:12.725Z,73.10
2017-10-30T05:41:40.273Z,72.70
2017-10-30T05:44:07.829Z,72.40
2017-10-30T05:46:35.421Z,72.90
2017-10-30T05:49:03.737Z,72.20
2017-10-30T05:51:31.290Z,72.20
2017-10-30T05:53:58.892Z,72.00
2017-10-30T05:56:26.665Z,71.80
2017-10-30T05:58:54.211Z,71.90
2017-10-30T06:01:21.808Z,72.20
2017-10-30T06:03:50.107Z,72.20
2017-10-30T06:06:17.673Z,72.20
2017-10-30T06:08:45.267Z,72.00
2017-10-30T06:11:12.836Z,72.00
2017-10-30T06:13:40.375Z,72.00
2017-10-30T06:16:07.963Z,71.80
2017-10-30T06:18:35.513Z,71.80
2017-10-30T06:21:03.075Z,71.60
2017-10-30T06:23:30.661Z,71.60
2017-10-30T06:25:58.986Z,71.20
2017-10-30T06:28:26.533Z,71.20
2017-10-30T06:30:54.139Z,71.30
2017-10-30T06:33:21.683Z,71.20
2017-10-30T06:35:49.263Z,71.20
2017-10-30T06:38:16.869Z,71.20
2017-10-30T06:40:44.417Z,71.10
2017-10-30T06:43:11.992Z,71.30
2017-10-30T06:45:39.569Z,71.30
2017-10-30T06:48:07.119Z,71.30
2017-10-30T06:50:34.703Z,71.20
2017-10-30T06:53:02.277Z,71.50
2017-10-30T06:55:29.830Z,71.20
2017-10-30T06:57:57.391Z,71.30
2017-10-30T07:00:24.972Z,71.20
2017-10-30T07:02:58.467Z,71.10
2017-10-30T07:05:26.807Z,71.10
2017-10-30T07:07:54.347Z,71.10
2017-10-30T07:10:21.937Z,71.40
2017-10-30T07:12:49.532Z,71.20
2017-10-30T07:15:17.907Z,71.20
2017-10-30T07:17:45.512Z,71.10
2017-10-30T07:20:13.110Z,70.90
2017-10-30T07:22:40.678Z,70.70
2017-10-30T07:25:08.257Z,70.60
2017-10-30T07:27:36.621Z,70.90
2017-10-30T07:30:04.950Z,71.80
2017-10-30T07:32:32.505Z,71.90
2017-10-30T07:35:00.091Z,71.00
2017-10-30T07:37:27.642Z,71.30
2017-10-30T07:39:55.193Z,71.30
2017-10-30T07:42:22.768Z,71.30
2017-10-30T07:44:50.317Z,70.60
2017-10-30T07:47:17.876Z,70.60
2017-10-30T07:49:45.457Z,71.10
2017-10-30T07:52:14.571Z,70.80
2017-10-30T07:54:42.942Z,70.80
2017-10-30T07:57:11.316Z,70.10
2017-10-30T07:59:38.915Z,70.10
2017-10-30T08:02:06.559Z,70.00
2017-10-30T08:04:34.972Z,70.10
2017-10-30T08:07:02.543Z,70.00
2017-10-30T08:09:30.135Z,70.50
2017-10-30T08:11:57.750Z,70.40
2017-10-30T08:14:25.334Z,70.90
2017-10-30T08:16:52.908Z,71.00
2017-10-30T08:19:20.563Z,70.90
2017-10-30T08:21:48.166Z,70.40
2017-10-30T08:24:16.854Z,70.70
2017-10-30T08:26:45.217Z,70.30
2017-10-30T08:29:13.577Z,69.50
2017-10-30T08:31:41.181Z,69.50
2017-10-30T08:34:08.768Z,69.70
2017-10-30T08:36:36.367Z,68.80
2017-10-30T08:39:03.944Z,69.60
2017-10-30T08:41:32.356Z,68.70
2017-10-30T08:43:59.937Z,68.70
2017-10-30T08:46:27.526Z,68.50
2017-10-30T08:48:55.163Z,69.10
2017-10-30T08:51:22.728Z,69.30
2017-10-30T08:53:50.319Z,69.70
2017-10-30T08:56:18.705Z,69.50
2017-10-30T08:58:47.052Z,69.00
2017-10-30T09:01:14.656Z,69.00
2017-10-30T09:03:42.294Z,68.80
2017-10-30T09:06:09.853Z,69.60
2017-10-30T09:08:38.949Z,69.00
2017-10-30T09:11:06.605Z,69.00
2017-10-30T09:13:34.171Z,68.40
2017-10-30T09:16:02.537Z,69.30
2017-10-30T09:18:30.164Z,68.70
2017-10-30T09:20:57.768Z,69.10
2017-10-30T09:23:25.340Z,68.90
2017-10-30T09:25:53.714Z,68.30
2017-10-30T09:28:22.054Z,68.70
2017-10-30T09:30:50.388Z,69.90
2017-10-30T09:33:18.014Z,69.90
2017-10-30T09:35:45.614Z,69.80
2017-10-30T09:38:13.199Z,69.00
2017-10-30T09:40:40.860Z,68.20
2017-10-30T09:43:08.420Z,68.60
2017-10-30T09:45:35.985Z,68.70
2017-10-30T09:48:03.593Z,68.90
2017-10-30T09:50:31.934Z,68.40
2017-10-30T09:52:59.499Z,68.20
2017-10-30T09:55:27.113Z,68.00
2017-10-30T09:57:54.725Z,67.50
2017-10-30T10:00:22.295Z,67.60
2017-10-30T10:02:49.886Z,68.50
2017-10-30T10:05:18.256Z,66.60
2017-10-30T10:07:46.613Z,66.20
2017-10-30T10:10:14.221Z,66.10
2017-10-30T10:12:41.798Z,65.40
2017-10-30T10:15:09.414Z,65.80
2017-10-30T10:17:37.821Z,65.50
2017-10-30T10:20:05.397Z,65.40
2017-10-30T10:22:32.967Z,64.30
2017-10-30T10:25:00.613Z,64.90
2017-10-30T10:27:28.226Z,63.70
2017-10-30T10:29:56.556Z,64.80
2017-10-30T10:32:24.171Z,64.10
2017-10-30T10:34:52.523Z,62.60
2017-10-30T10:37:20.098Z,62.60
2017-10-30T10:39:48.472Z,63.20
2017-10-30T10:42:16.071Z,63.20
2017-10-30T10:44:43.652Z,64.00
2017-10-30T10:47:11.285Z,63.90
2017-10-30T10:49:38.856Z,62.90
2017-10-30T10:52:06.434Z,62.50
2017-10-30T10:54:34.036Z,63.10
2017-10-30T10:57:02.361Z,65.00
2017-10-30T10:59:29.907Z,65.00
2017-10-30T11:01:57.492Z,63.00
2017-10-30T11:04:25.069Z,62.10
2017-10-30T11:06:52.629Z,60.80
2017-10-30T11:09:20.214Z,64.00
2017-10-30T11:11:47.775Z,63.60
2017-10-30T11:14:15.338Z,61.50
2017-10-30T11:16:43.732Z,61.30
2017-10-30T11:19:11.363Z,61.20
2017-10-30T11:21:38.933Z,60.40
2017-10-30T11:24:07.300Z,56.30
2017-10-30T11:26:34.855Z,56.40
2017-10-30T11:29:02.431Z,55.60
2017-10-30T11:31:30.800Z,55.60
2017-10-30T11:33:58.385Z,55.60
2017-10-30T11:36:26.729Z,55.10
2017-10-30T11:38:54.331Z,55.00
2017-10-30T11:41:21.909Z,55.90
2017-10-30T11:43:49.485Z,56.70
2017-10-30T11:46:17.828Z,57.40
2017-10-30T11:48:45.381Z,57.20
2017-10-30T11:51:13.728Z,58.50
2017-10-30T11:53:41.340Z,58.50
2017-10-30T11:56:08.884Z,58.10
2017-10-30T11:58:36.420Z,57.00
2017-10-30T12:01:04.008Z,57.30
2017-10-30T12:03:31.762Z,57.30
2017-10-30T12:06:00.077Z,56.60
2017-10-30T12:08:27.684Z,56.60
2017-10-30T12:10:56.026Z,58.10
2017-10-30T12:13:24.345Z,58.70
2017-10-30T12:15:52.697Z,58.10
2017-10-30T12:18:20.239Z,58.10
2017-10-30T12:20:47.776Z,58.10
2017-10-30T12:23:15.369Z,59.90
2017-10-30T12:25:42.930Z,58.10
2017-10-30T12:28:10.501Z,58.20
2017-10-30T12:30:38.099Z,57.30
2017-10-30T12:33:05.642Z,57.10
2017-10-30T12:35:33.957Z,56.80
2017-10-30T12:38:01.576Z,56.80
2017-10-30T12:40:29.907Z,56.80
2017-10-30T12:42:57.461Z,56.70
2017-10-30T12:45:25.078Z,57.50
2017-10-30T12:47:53.403Z,59.20
2017-10-30T12:50:20.939Z,59.20
2017-10-30T12:52:48.540Z,58.50
2017-10-30T12:55:16.891Z,57.10
2017-10-30T12:57:44.463Z,57.10
2017-10-30T13:00:12.084Z,56.40
2017-10-30T13:02:40.422Z,54.50
2017-10-30T13:05:08.005Z,54.50
2017-10-30T13:07:36.425Z,55.90
2017-10-30T13:10:03.995Z,55.90
2017-10-30T13:12:31.603Z,55.70
2017-10-30T13:14:59.956Z,56.20
2017-10-30T13:17:27.530Z,56.10
2017-10-30T13:19:55.977Z,56.60
2017-10-30T13:22:23.603Z,56.10
2017-10-30T13:24:51.169Z,56.20
2017-10-30T13:27:18.718Z,55.90
2017-10-30T13:29:47.064Z,55.80
2017-10-30T13:32:14.640Z,55.80
2017-10-30T13:34:42.971Z,57.60
2017-10-30T13:37:10.561Z,57.70
2017-10-30T13:39:38.116Z,56.10
2017-10-30T13:42:05.659Z,55.30
2017-10-30T13:44:33.223Z,55.70
2017-10-30T13:47:00.797Z,55.50
2017-10-30T13:49:28.367Z,56.50
2017-10-30T13:51:56.751Z,56.80
2017-10-30T13:54:24.313Z,56.80
2017-10-30T13:56:52.637Z,56.00
2017-10-30T13:59:20.228Z,56.00
2017-10-30T14:01:47.812Z,56.90
2017-10-30T14:04:16.149Z,57.80
2017-10-30T14:06:43.721Z,57.70
2017-10-30T14:09:11.277Z,59.00
2017-10-30T14:11:38.823Z,59.90
2017-10-30T14:14:06.422Z,58.90
2017-10-30T14:16:33.980Z,58.70
2017-10-30T14:19:01.528Z,58.50
2017-10-30T14:21:29.113Z,57.80
2017-10-30T14:23:57.445Z,58.00
2017-10-30T14:26:25.949Z,57.70
2017-10-30T14:28:53.560Z,57.70
2017-10-30T14:31:21.330Z,58.10
2017-10-30T14:33:48.882Z,58.10
2017-10-30T14:36:16.470Z,58.90
2017-10-30T14:38:44.068Z,59.00
2017-10-30T14:41:12.408Z,57.70
2017-10-30T14:43:40.021Z,57.70
2017-10-30T14:46:08.378Z,57.00
2017-10-30T14:48:35.991Z,57.00
2017-10-30T14:51:03.613Z,57.80
2017-10-30T14:53:31.967Z,58.20
2017-10-30T14:55:59.533Z,58.20
2017-10-30T14:58:27.131Z,58.10
2017-10-30T15:00:54.711Z,58.20
2017-10-30T15:03:22.278Z,58.10
2017-10-30T15:05:49.899Z,59.00
2017-10-30T15:08:18.254Z,59.30
2017-10-30T15:10:46.242Z,59.30
2017-10-30T15:13:14.598Z,58.80
2017-10-30T15:15:42.154Z,58.80
2017-10-30T15:18:09.713Z,59.60
2017-10-30T15:20:37.312Z,59.00
2017-10-30T15:23:05.673Z,57.90
2017-10-30T15:25:34.015Z,57.80
2017-10-30T15:28:01.653Z,57.70
2017-10-30T15:30:29.527Z,57.50
2017-10-30T15:32:57.081Z,57.50
2017-10-30T15:35:24.696Z,58.10
2017-10-30T15:37:53.004Z,59.50
2017-10-30T15:40:20.612Z,59.50
2017-10-30T15:42:48.603Z,59.30
2017-10-30T15:45:16.921Z,60.30
2017-10-30T15:47:44.545Z,60.30
2017-10-30T15:50:12.914Z,60.80
2017-10-30T15:52:40.496Z,60.80
2017-10-30T15:55:08.104Z,61.10
2017-10-30T15:57:35.715Z,61.70
2017-10-30T16:00:04.061Z,61.70
2017-10-30T16:02:31.650Z,61.70
2017-10-30T16:04:59.975Z,60.40
2017-10-30T16:07:27.527Z,60.40
2017-10-30T16:09:55.073Z,62.10
2017-10-30T16:12:22.661Z,61.00
2017-10-30T16:14:50.223Z,61.90
2017-10-30T16:17:17.759Z,61.90
2017-10-30T16:19:45.326Z,61.20
2017-10-30T16:22:12.991Z,61.60
2017-10-30T16:24:40.551Z,60.90
2017-10-30T16:27:08.157Z,61.70
2017-10-30T16:29:35.709Z,61.00
2017-10-30T16:32:03.258Z,61.20
2017-10-30T16:34:30.923Z,61.50
2017-10-30T16:36:58.484Z,62.70
2017-10-30T16:39:26.043Z,63.00
2017-10-30T16:41:53.628Z,63.60
2017-10-30T16:44:21.953Z,64.70
2017-10-30T16:46:49.541Z,64.70
2017-10-30T16:49:17.116Z,64.00
2017-10-30T16:51:45.463Z,64.50
2017-10-30T16:54:13.040Z,64.50
2017-10-30T16:56:40.661Z,64.30
2017-10-30T16:59:08.293Z,65.10
2017-10-30T17:01:36.647Z,64.10
2017-10-30T17:04:04.220Z,64.10
2017-10-30T17:06:32.518Z,65.40
2017-10-30T17:09:00.060Z,65.40
2017-10-30T17:11:28.485Z,65.50
2017-10-30T17:13:56.817Z,65.00
2017-10-30T17:16:25.144Z,64.20
2017-10-30T17:18:54.531Z,64.10
2017-10-30T17:21:22.090Z,64.20
2017-10-30T17:23:49.647Z,65.00
2017-10-30T17:26:17.220Z,64.80
2017-10-30T17:28:44.793Z,65.60
2017-10-30T17:31:12.358Z,66.40
2017-10-30T17:33:40.259Z,66.50
2017-10-30T17:36:07.892Z,65.80
2017-10-30T17:38:35.442Z,65.30
2017-10-30T17:41:03.031Z,66.80
2017-10-30T17:43:32.112Z,66.10
2017-10-30T17:45:59.718Z,66.10
2017-10-30T17:48:27.331Z,65.50
2017-10-30T17:50:54.877Z,65.80
2017-10-30T17:53:22.426Z,66.20
2017-10-30T17:55:50.022Z,68.00
2017-10-30T17:58:17.568Z,68.40
2017-10-30T18:00:45.123Z,68.10
2017-10-30T18:03:12.687Z,67.60
2017-10-30T18:05:40.252Z,67.70
2017-10-30T18:08:07.880Z,66.70
2017-10-30T18:10:35.457Z,66.20
2017-10-30T18:13:03.007Z,65.60
2017-10-30T18:15:30.586Z,66.00
2017-10-30T18:17:58.172Z,66.00
2017-10-30T18:20:26.488Z,65.60
2017-10-30T18:22:54.042Z,65.60
2017-10-30T18:25:21.629Z,65.20
2017-10-30T18:27:49.177Z,65.20
2017-10-30T18:30:16.741Z,65.40
2017-10-30T18:32:44.337Z,65.80
2017-10-30T18:35:12.654Z,66.70
2017-10-30T18:37:41.709Z,66.70
2017-10-30T18:40:10.082Z,67.90
2017-10-30T18:42:38.190Z,67.90
2017-10-30T18:45:05.793Z,67.90
2017-10-30T18:47:34.137Z,67.40
2017-10-30T18:50:01.675Z,67.20
2017-10-30T18:52:29.989Z,67.50
2017-10-30T18:54:57.583Z,67.50
2017-10-30T18:57:25.135Z,66.30
2017-10-30T18:59:52.668Z,66.80
2017-10-30T19:02:20.240Z,67.00
2017-10-30T19:04:47.804Z,66.80
2017-10-30T19:07:15.369Z,67.60
2017-10-30T19:09:42.935Z,66.80
2017-10-30T19:12:10.495Z,67.30
2017-10-30T19:14:38.115Z,66.70
2017-10-30T19:17:05.719Z,66.30
2017-10-30T19:19:33.278Z,67.20
2017-10-30T19:22:00.828Z,67.10
2017-10-30T19:24:28.406Z,67.40
2017-10-30T19:26:56.806Z,68.70
2017-10-30T19:29:25.493Z,69.20
2017-10-30T19:31:53.205Z,69.80
2017-10-30T19:34:20.763Z,69.10
2017-10-30T19:36:48.317Z,69.40
2017-10-30T19:39:15.906Z,69.90
2017-10-30T19:41:43.515Z,70.10
2017-10-30T19:44:11.115Z,70.10
2017-10-30T19:46:38.684Z,70.00
2017-10-30T19:49:06.263Z,70.30
2017-10-30T19:51:34.610Z,70.10
2017-10-30T19:54:02.199Z,69.90
2017-10-30T19:56:30.520Z,69.80
2017-10-30T19:58:58.077Z,69.80
2017-10-30T20:01:25.667Z,70.30
2017-10-30T20:03:53.985Z,70.00
2017-10-30T20:06:27.918Z,70.00
2017-10-30T20:09:01.230Z,70.00
2017-10-30T20:11:38.173Z,70.60
2017-10-30T20:14:06.504Z,71.20
2017-10-30T20:16:34.713Z,71.10
2017-10-30T20:19:03.037Z,71.00
2017-10-30T20:21:30.606Z,71.00
2017-10-30T20:23:58.176Z,71.10
2017-10-30T20:26:25.727Z,70.90
2017-10-30T20:28:53.278Z,70.80
2017-10-30T20:31:20.847Z,70.20
2017-10-30T20:33:48.412Z,70.20
2017-10-30T20:36:15.948Z,70.60
2017-10-30T20:38:43.534Z,71.10
2017-10-30T20:41:11.094Z,71.30
2017-10-30T20:43:38.638Z,71.50
2017-10-30T20:46:06.244Z,71.20
2017-10-30T20:48:34.548Z,70.90
2017-10-30T20:51:02.097Z,70.90
2017-10-30T20:53:29.701Z,71.20
2017-10-30T20:55:57.244Z,71.10
2017-10-30T20:58:24.809Z,70.60
2017-10-30T21:00:52.398Z,70.40
2017-10-30T21:03:19.959Z,70.20
2017-10-30T21:05:47.518Z,69.70
2017-10-30T21:08:15.088Z,70.80
2017-10-30T21:10:42.633Z,71.30
2017-10-30T21:13:10.214Z,71.60
2017-10-30T21:15:38.564Z,71.80
2017-10-30T21:18:06.118Z,71.60
2017-10-30T21:20:33.665Z,71.70
2017-10-30T21:23:01.236Z,71.60
2017-10-30T21:25:28.797Z,72.10
2017-10-30T21:27:56.346Z,71.70
2017-10-30T21:30:25.815Z,71.60
2017-10-30T21:32:53.502Z,71.60
2017-10-30T21:35:21.086Z,71.60
2017-10-30T21:37:48.661Z,71.60
2017-10-30T21:40:16.204Z,71.80
2017-10-30T21:42:43.766Z,72.10
2017-10-30T21:45:11.353Z,72.10
2017-10-30T21:47:39.682Z,72.00
2017-10-30T21:50:07.255Z,72.00
2017-10-30T21:52:34.843Z,71.90
2017-10-30T21:55:02.431Z,72.40
2017-10-30T21:57:29.981Z,73.10
2017-10-30T21:59:58.345Z,71.90
2017-10-30T22:02:25.883Z,71.90
2017-10-30T22:04:53.419Z,71.90
2017-10-30T22:07:21.003Z,71.70
2017-10-30T22:09:48.554Z,72.00
2017-10-30T22:12:16.091Z,71.80
2017-10-30T22:14:43.669Z,71.60
2017-10-30T22:17:11.219Z,71.70
2017-10-30T22:19:38.783Z,72.00
2017-10-30T22:22:06.364Z,71.60
2017-10-30T22:24:33.907Z,71.60
2017-10-30T22:27:01.443Z,71.60
2017-10-30T22:29:29.027Z,71.20
2017-10-30T22:31:56.597Z,71.20
2017-10-30T22:34:24.173Z,71.00
2017-10-30T22:36:51.777Z,71.10
2017-10-30T22:39:19.311Z,71.10
2017-10-30T22:41:47.627Z,71.30
2017-10-30T22:44:15.205Z,71.30
2017-10-30T22:46:42.766Z,71.40
2017-10-30T22:49:10.351Z,71.40
2017-10-30T22:51:37.933Z,71.10
2017-10-30T22:54:06.266Z,71.40
2017-10-30T22:56:33.818Z,71.40
2017-10-30T22:59:01.436Z,71.50
2017-10-30T23:01:28.988Z,71.10
2017-10-30T23:03:57.291Z,71.70
2017-10-30T23:06:24.868Z,71.70
2017-10-30T23:08:52.426Z,71.70
2017-10-30T23:11:19.970Z,71.10
2017-10-30T23:13:47.540Z,71.40
2017-10-30T23:16:15.099Z,71.10
2017-10-30T23:18:42.652Z,71.20
2017-10-30T23:21:10.223Z,71.80
2017-10-30T23:23:37.791Z,71.80
2017-10-30T23:26:05.341Z,72.00
2017-10-30T23:28:32.945Z,71.70
2017-10-30T23:31:00.489Z,71.60
2017-10-30T23:33:28.044Z,71.60
2017-10-30T23:35:55.625Z,71.70
2017-10-30T23:38:23.169Z,72.20
2017-10-30T23:40:50.723Z,71.80
2017-10-30T23:43:18.291Z,71.60
2017-10-30T23:45:45.841Z,71.40
2017-10-30T23:48:14.157Z,71.90
2017-10-30T23:50:42.492Z,70.80
2017-10-30T23:53:10.058Z,70.70
2017-10-30T23:55:37.615Z,70.90
2017-10-30T23:58:05.179Z,72.10
